Time;durP1;ratioP1;P1;durP2;ratioP2;P2;SDS_P1;SDS_P2;PMS_P1;PMS_P2;Temp;Humidity;BMP_temperature;BMP_pressure;BME280_temperature;BME280_humidity;BME280_pressure;Samples;Min_cycle;Max_cycle;Signal;HPM_P1;HPM_P2
2023/04/06 00:00:49;;;;;;;6.57;4.82;;;;;;;4.41;84.17;96001.50;5053163;28;20095;-55
2023/04/06 00:03:16;;;;;;;25.90;22.63;;;;;;;4.36;83.44;96000.78;5053145;28;20049;-54
2023/04/06 00:05:43;;;;;;;8.05;7.25;;;;;;;4.27;83.03;96005.25;5053090;28;20040;-57
2023/04/06 00:08:11;;;;;;;5.35;4.85;;;;;;;4.16;82.26;96002.06;5053056;28;20044;-59
2023/04/06 00:10:38;;;;;;;4.43;3.97;;;;;;;3.94;81.48;96007.66;5052999;28;20045;-57
2023/04/06 00:13:06;;;;;;;5.65;4.45;;;;;;;3.75;80.63;96002.00;5052863;28;20565;-63
2023/04/06 00:15:34;;;;;;;5.03;4.53;;;;;;;3.61;81.14;96002.28;5053019;28;20048;-63
2023/04/06 00:18:03;;;;;;;5.47;4.50;;;;;;;3.46;81.61;96000.81;5052941;28;20083;-53
2023/04/06 00:20:31;;;;;;;5.28;4.78;;;;;;;3.32;81.61;95991.59;5052956;28;20041;-52
2023/04/06 00:22:58;;;;;;;5.55;5.00;;;;;;;3.15;82.11;95987.56;5052933;28;20045;-54
2023/04/06 00:25:26;;;;;;;5.50;4.70;;;;;;;3.08;82.53;95977.34;5053036;28;20045;-52
2023/04/06 00:27:53;;;;;;;5.28;4.50;;;;;;;3.10;82.56;95980.78;5052854;28;20045;-53
2023/04/06 00:30:20;;;;;;;5.00;4.20;;;;;;;3.07;82.66;95975.66;5052857;28;20049;-55
2023/04/06 00:32:48;;;;;;;5.05;4.47;;;;;;;3.02;82.70;95974.00;5052817;28;20052;-60
2023/04/06 00:35:16;;;;;;;8.32;4.88;;;;;;;2.98;82.23;95969.75;5054189;28;20110;-62
2023/04/06 00:37:43;;;;;;;9.43;4.85;;;;;;;2.92;82.18;95967.25;5056856;28;20376;-59
2023/04/06 00:40:11;;;;;;;6.40;5.68;;;;;;;2.87;82.33;95969.94;5056949;28;20048;-54
2023/04/06 00:42:39;;;;;;;5.43;4.53;;;;;;;2.87;82.11;95969.09;5056755;28;20098;-50
2023/04/06 00:45:08;;;;;;;5.55;4.90;;;;;;;2.83;82.07;95963.09;5056804;28;20045;-59
2023/04/06 00:47:35;;;;;;;5.80;4.78;;;;;;;2.70;82.52;95959.00;5056739;28;20060;-58
2023/04/06 00:50:02;;;;;;;5.13;4.30;;;;;;;2.61;82.84;95962.59;5056699;28;20052;-57
2023/04/06 00:52:30;;;;;;;5.55;4.47;;;;;;;2.49;82.97;95948.16;5056600;28;20052;-56
2023/04/06 00:54:58;;;;;;;5.50;4.70;;;;;;;2.44;83.32;95955.97;5056591;28;20049;-56
2023/04/06 00:57:25;;;;;;;5.55;4.80;;;;;;;2.33;82.90;95939.78;5056491;28;20045;-61
2023/04/06 00:59:54;;;;;;;6.43;5.20;;;;;;;2.18;84.08;95933.97;5056500;28;20044;-59
2023/04/06 01:02:21;;;;;;;6.30;5.57;;;;;;;2.13;84.74;95940.91;5056435;28;20060;-55
2023/04/06 01:04:48;;;;;;;6.97;4.78;;;;;;;2.05;84.08;95929.88;5056338;28;20045;-56
2023/04/06 01:07:15;;;;;;;5.95;4.88;;;;;;;1.98;83.99;95932.53;5056340;28;20048;-60
2023/04/06 01:09:44;;;;;;;5.63;5.07;;;;;;;1.97;84.58;95932.53;5056326;28;20049;-58
2023/04/06 01:12:11;;;;;;;8.82;6.65;;;;;;;1.89;84.23;95930.06;5056104;28;20072;-52
2023/04/06 01:14:38;;;;;;;6.20;5.43;;;;;;;1.77;85.08;95931.94;5056092;28;20049;-59
2023/04/06 01:17:05;;;;;;;6.40;5.28;;;;;;;1.77;85.46;95928.50;5056105;28;20049;-57
2023/04/06 01:19:32;;;;;;;6.43;4.88;;;;;;;1.83;85.45;95922.41;5056082;28;20048;-57
2023/04/06 01:21:59;;;;;;;5.65;4.78;;;;;;;1.77;85.46;95918.19;5056018;28;20124;-59
2023/04/06 01:24:28;;;;;;;6.25;5.22;;;;;;;1.80;85.10;95917.31;5055958;28;20405;-53
2023/04/06 01:26:56;;;;;;;5.70;5.10;;;;;;;1.83;84.55;95920.69;5055947;28;20056;-59
2023/04/06 01:29:23;;;;;;;6.50;4.68;;;;;;;1.78;84.16;95914.75;5055932;28;20132;-57
2023/04/06 01:31:50;;;;;;;5.70;5.10;;;;;;;1.72;83.71;95920.81;5055857;28;20045;-56
2023/04/06 01:34:17;;;;;;;5.18;4.55;;;;;;;1.72;83.20;95919.97;5055772;28;20517;-55
2023/04/06 01:36:44;;;;;;;7.00;4.13;;;;;;;1.69;83.01;95920.88;5055868;28;20048;-52
2023/04/06 01:39:12;;;;;;;6.70;5.57;;;;;;;1.60;83.20;95921.00;5055813;28;20053;-54
2023/04/06 01:41:40;;;;;;;7.95;5.53;;;;;;;1.60;83.57;95913.25;5055645;28;20045;-56
2023/04/06 01:44:07;;;;;;;5.53;4.70;;;;;;;1.66;83.62;95920.06;5055635;28;20119;-57
2023/04/06 01:46:35;;;;;;;4.15;3.75;;;;;;;1.62;82.42;95921.81;5054775;28;20049;-54
2023/04/06 01:49:02;;;;;;;4.90;4.40;;;;;;;1.55;83.00;95927.91;5055511;28;20179;-63
2023/04/06 01:51:29;;;;;;;6.30;5.10;;;;;;;1.56;83.42;95922.75;5055479;28;20065;-56
2023/04/06 01:53:57;;;;;;;6.10;4.95;;;;;;;1.59;83.33;95927.00;5055354;28;20051;-56
2023/04/06 01:56:25;;;;;;;6.07;4.80;;;;;;;1.63;83.78;95928.69;5055391;28;20041;-55
2023/04/06 01:58:53;;;;;;;6.10;5.35;;;;;;;1.62;84.12;95922.66;5055352;28;20490;-58
2023/04/06 02:01:20;;;;;;;6.40;5.45;;;;;;;1.48;84.92;95922.81;5055273;28;20041;-59
2023/04/06 02:03:48;;;;;;;6.03;5.38;;;;;;;1.55;86.13;95927.91;5055295;28;20107;-56
2023/04/06 02:06:15;;;;;;;5.75;4.55;;;;;;;1.58;85.54;95922.72;5055326;28;20057;-58
2023/04/06 02:08:42;;;;;;;6.35;5.40;;;;;;;1.56;85.06;95922.75;5055138;28;20049;-62
2023/04/06 02:11:09;;;;;;;7.72;5.95;;;;;;;1.54;85.33;95913.31;5054949;28;20756;-56
2023/04/06 02:13:36;;;;;;;8.15;5.97;;;;;;;1.59;86.19;95917.53;5055095;28;20142;-52
2023/04/06 02:16:05;;;;;;;8.18;5.70;;;;;;;1.67;86.71;95919.16;5054952;28;20465;-58
2023/04/06 02:18:32;;;;;;;7.68;5.30;;;;;;;1.70;86.60;95922.59;5055054;28;20056;-56
2023/04/06 02:21:00;;;;;;;9.27;6.78;;;;;;;1.69;87.04;95913.16;5054971;28;20085;-59
2023/04/06 02:23:27;;;;;;;8.07;6.95;;;;;;;1.68;87.30;95918.31;5054954;28;20045;-59
2023/04/06 02:25:54;;;;;;;7.03;5.70;;;;;;;1.62;87.58;95914.06;5054821;28;20051;-60
2023/04/06 02:28:21;;;;;;;7.22;5.68;;;;;;;1.60;87.89;95911.50;5054877;28;20107;-60
2023/04/06 02:30:49;;;;;;;10.45;6.80;;;;;;;1.57;87.74;95913.28;5054734;28;20453;-59
2023/04/06 02:33:17;;;;;;;8.13;6.53;;;;;;;1.54;88.01;95915.91;5054773;28;20145;-58
2023/04/06 02:35:45;;;;;;;7.43;5.55;;;;;;;1.58;88.10;95912.41;5054599;28;20056;-54
2023/04/06 02:38:12;;;;;;;8.85;6.13;;;;;;;1.50;87.94;95908.22;5054652;28;20060;-61
2023/04/06 02:40:39;;;;;;;7.47;6.38;;;;;;;1.49;87.76;95906.50;5054500;28;20595;-60
2023/04/06 02:43:06;;;;;;;8.05;6.65;;;;;;;1.44;87.71;95903.13;5054568;28;20045;-54
2023/04/06 02:45:34;;;;;;;7.65;6.38;;;;;;;1.41;87.76;95916.03;5054430;28;20045;-59
2023/04/06 02:48:01;;;;;;;7.32;6.13;;;;;;;1.42;87.82;95911.75;5054338;28;20045;-60
2023/04/06 02:50:29;;;;;;;7.75;6.50;;;;;;;1.42;87.48;95917.78;5054385;28;20045;-57
2023/04/06 02:52:56;;;;;;;7.60;6.30;;;;;;;1.44;86.83;95920.31;5054281;28;20053;-58
2023/04/06 02:55:23;;;;;;;8.30;6.18;;;;;;;1.46;86.62;95921.16;5054217;28;20053;-59
2023/04/06 02:57:51;;;;;;;8.60;5.90;;;;;;;1.49;86.32;95921.09;5054290;28;20049;-59
2023/04/06 03:00:18;;;;;;;7.18;5.57;;;;;;;1.50;85.58;95923.66;5054281;28;20049;-63
2023/04/06 03:02:45;;;;;;;8.52;6.13;;;;;;;1.44;85.60;95923.75;5054217;28;20101;-60
2023/04/06 03:05:12;;;;;;;7.28;5.40;;;;;;;1.39;85.59;95921.22;5054086;28;20081;-56
2023/04/06 03:07:41;;;;;;;8.32;6.25;;;;;;;1.39;85.40;95934.09;5054006;28;20087;-57
2023/04/06 03:10:09;;;;;;;7.10;5.88;;;;;;;1.39;85.78;95931.53;5054002;28;20045;-57
2023/04/06 03:12:36;;;;;;;9.35;6.47;;;;;;;1.39;85.56;95939.25;5053828;28;20045;-58
2023/04/06 03:15:04;;;;;;;6.97;5.78;;;;;;;1.33;85.24;95928.19;5053802;28;20095;-59
2023/04/06 03:17:31;;;;;;;8.70;5.75;;;;;;;1.28;84.52;95935.09;5053864;28;20552;-57
2023/04/06 03:19:58;;;;;;;7.45;6.13;;;;;;;1.21;84.46;95942.03;5053890;28;20068;-60
2023/04/06 03:22:26;;;;;;;7.78;5.57;;;;;;;1.20;84.38;95941.19;5053881;28;20053;-58
2023/04/06 03:24:54;;;;;;;6.55;5.82;;;;;;;1.20;84.17;95941.19;5053768;28;20075;-58
2023/04/06 03:27:22;;;;;;;7.20;6.40;;;;;;;1.14;84.46;95941.25;5053864;28;20556;-58
2023/04/06 03:29:49;;;;;;;7.75;6.22;;;;;;;1.10;84.90;95940.44;5053569;28;20047;-57
2023/04/06 03:32:16;;;;;;;7.03;6.32;;;;;;;1.15;85.14;95945.53;5053593;28;20045;-59
2023/04/06 03:34:43;;;;;;;7.50;6.35;;;;;;;1.10;85.43;95950.75;5053555;28;20055;-54
2023/04/06 03:37:11;;;;;;;8.38;6.10;;;;;;;1.04;85.57;95944.78;5053564;28;20437;-57
2023/04/06 03:39:38;;;;;;;7.05;5.90;;;;;;;1.07;85.51;95940.47;5053555;28;20049;-61
2023/04/06 03:42:07;;;;;;;8.35;6.50;;;;;;;1.12;85.43;95941.25;5053429;28;20049;-53
2023/04/06 03:44:34;;;;;;;9.95;8.20;;;;;;;1.13;85.88;95942.13;5053469;28;20114;-55
2023/04/06 03:47:02;;;;;;;8.73;6.82;;;;;;;1.14;85.88;95938.66;5053338;28;20041;-61
2023/04/06 03:49:30;;;;;;;8.55;6.78;;;;;;;1.13;86.04;95935.25;5053457;28;20486;-56
2023/04/06 03:51:58;;;;;;;10.55;6.57;;;;;;;1.13;85.83;95939.53;5053420;28;20084;-55
2023/04/06 03:54:25;;;;;;;11.43;7.38;;;;;;;1.12;85.58;95937.84;5053367;28;20081;-52
2023/04/06 03:56:52;;;;;;;8.68;5.93;;;;;;;1.06;84.83;95936.19;5053045;28;20049;-54
2023/04/06 03:59:21;;;;;;;7.18;5.88;;;;;;;1.02;85.14;95931.09;5053255;28;20045;-57
2023/04/06 04:01:48;;;;;;;7.18;6.22;;;;;;;0.90;85.90;95934.63;5053199;28;20077;-58
2023/04/06 04:04:15;;;;;;;9.60;7.72;;;;;;;0.83;86.52;95942.41;5053131;28;20449;-55
2023/04/06 04:06:43;;;;;;;8.90;7.28;;;;;;;0.84;87.01;95926.06;5053090;28;20049;-54
2023/04/06 04:09:10;;;;;;;9.20;7.25;;;;;;;0.84;87.28;95932.97;5052854;28;20261;-57
2023/04/06 04:11:37;;;;;;;10.63;7.68;;;;;;;0.85;87.51;95937.25;5052241;28;20049;-57
2023/04/06 04:14:04;;;;;;;9.55;7.15;;;;;;;0.90;87.07;95938.03;5052902;28;20049;-58
2023/04/06 04:16:33;;;;;;;11.93;7.28;;;;;;;0.91;86.77;95937.19;5052949;28;20049;-56
2023/04/06 04:19:02;;;;;;;10.38;7.78;;;;;;;0.95;87.29;95933.72;5053047;28;20084;-55
2023/04/06 04:21:31;;;;;;;9.70;7.45;;;;;;;1.05;87.32;95938.78;5053065;28;20052;-52
2023/04/06 04:23:58;;;;;;;8.02;7.20;;;;;;;1.10;86.89;95934.41;5052976;28;20041;-60
2023/04/06 04:26:26;;;;;;;7.93;6.38;;;;;;;1.13;86.32;95937.84;5052935;28;20047;-57
2023/04/06 04:28:54;;;;;;;8.82;6.90;;;;;;;1.21;86.25;95942.03;5052876;28;20041;-51
2023/04/06 04:31:22;;;;;;;7.10;6.28;;;;;;;1.22;85.42;95936.88;5052866;28;20049;-56
2023/04/06 04:33:54;;;;;;;10.32;7.00;;;;;;;1.26;85.01;95941.13;5052803;28;20096;-55
2023/04/06 04:36:23;;;;;;;8.38;6.13;;;;;;;1.27;84.18;95947.16;5052788;28;20049;-54
2023/04/06 04:38:50;;;;;;;9.43;8.00;;;;;;;1.20;84.14;95941.19;5052747;28;20088;-61
2023/04/06 04:41:17;;;;;;;8.07;6.65;;;;;;;1.22;84.70;95942.03;5052808;28;20124;-56
2023/04/06 04:43:45;;;;;;;8.68;6.68;;;;;;;1.24;84.99;95939.44;5052705;28;20052;-58
2023/04/06 04:46:12;;;;;;;8.30;6.25;;;;;;;1.30;84.80;95946.25;5052730;28;20081;-56
2023/04/06 04:48:39;;;;;;;8.10;6.35;;;;;;;1.33;84.46;95943.63;5052746;28;20052;-57
2023/04/06 04:51:08;;;;;;;9.50;7.63;;;;;;;1.40;84.46;95950.44;5052604;28;20418;-55
2023/04/06 04:53:35;;;;;;;7.30;6.38;;;;;;;1.47;84.48;95946.91;5052649;28;20512;-60
2023/04/06 04:56:02;;;;;;;7.55;6.40;;;;;;;1.55;84.38;95949.41;5052661;28;20048;-58
2023/04/06 04:58:30;;;;;;;9.55;6.90;;;;;;;1.61;83.85;95951.91;5052566;28;20073;-57
2023/04/06 05:00:57;;;;;;;8.05;6.18;;;;;;;1.68;83.42;95952.69;5052538;28;20052;-56
2023/04/06 05:03:26;;;;;;;8.73;7.05;;;;;;;1.69;83.23;95950.97;5052580;28;20047;-56
2023/04/06 05:05:54;;;;;;;7.90;6.78;;;;;;;1.69;83.10;95956.13;5052657;28;20102;-58
2023/04/06 05:08:23;;;;;;;7.45;6.60;;;;;;;1.84;83.21;95955.09;5052567;28;20402;-59
2023/04/06 05:10:50;;;;;;;13.68;7.43;;;;;;;2.00;83.95;95942.81;5052465;28;20076;-54
2023/04/06 05:13:17;;;;;;;9.25;6.90;;;;;;;2.38;84.80;95950.91;5052268;28;20080;-55
2023/04/06 05:15:45;;;;;;;6.72;5.82;;;;;;;3.25;81.54;95948.63;5052306;28;20491;-58
2023/04/06 05:18:12;;;;;;;6.35;5.10;;;;;;;4.34;76.75;95945.56;5052367;28;20056;-58
2023/04/06 05:20:40;;;;;;;4.97;4.47;;;;;;;5.41;72.31;95947.25;5052322;28;20082;-58
2023/04/06 05:23:07;;;;;;;6.18;4.57;;;;;;;6.44;68.29;95944.34;5054988;28;20049;-54
2023/04/06 05:25:36;;;;;;;4.53;3.25;;;;;;;7.37;63.88;95953.50;5055991;28;20052;-54
2023/04/06 05:28:04;;;;;;;5.18;4.68;;;;;;;8.24;61.34;95959.13;5055990;28;20438;-60
2023/04/06 05:30:31;;;;;;;6.72;4.47;;;;;;;9.05;58.54;95955.97;5055908;28;20048;-56
2023/04/06 05:32:58;;;;;;;4.80;4.25;;;;;;;9.47;56.96;95957.69;5055974;28;20049;-58
2023/04/06 05:35:25;;;;;;;4.70;4.20;;;;;;;10.01;54.92;95961.47;5055832;28;20076;-57
2023/04/06 05:37:52;;;;;;;4.60;4.20;;;;;;;10.63;55.22;95949.97;5055742;28;20041;-58
2023/04/06 05:40:20;;;;;;;5.25;4.75;;;;;;;11.04;52.06;95956.72;5055724;28;20450;-62
2023/04/06 05:42:49;;;;;;;4.80;4.40;;;;;;;11.27;52.49;95949.50;5055717;28;20380;-57
2023/04/06 05:45:18;;;;;;;4.78;4.30;;;;;;;11.16;50.78;95951.78;5055617;28;20072;-57
2023/04/06 05:47:46;;;;;;;4.40;4.05;;;;;;;11.32;51.77;95942.25;5055606;28;20053;-60
2023/04/06 05:50:13;;;;;;;5.53;4.88;;;;;;;11.28;52.28;95942.47;5055509;28;20053;-53
2023/04/06 05:52:43;;;;;;;4.97;4.38;;;;;;;11.45;52.66;95934.63;5055574;28;20053;-57
2023/04/06 05:55:11;;;;;;;5.07;4.57;;;;;;;11.41;50.51;95933.09;5055539;28;20457;-57
2023/04/06 05:57:38;;;;;;;5.30;4.80;;;;;;;11.62;51.29;95931.13;5055406;28;20045;-60
2023/04/06 06:00:09;;;;;;;5.38;4.82;;;;;;;11.40;51.70;95926.16;5055368;28;20048;-54
2023/04/06 06:02:36;;;;;;;5.82;4.82;;;;;;;11.08;52.20;95926.84;5055376;28;20122;-53
2023/04/06 06:05:04;;;;;;;4.40;4.00;;;;;;;10.93;51.61;95927.63;5055301;28;20045;-53
2023/04/06 06:07:31;;;;;;;5.05;4.55;;;;;;;10.86;52.69;95922.69;5055259;28;20053;-58
2023/04/06 06:09:58;;;;;;;4.93;4.30;;;;;;;10.98;52.66;95923.84;5055214;28;20055;-56
2023/04/06 06:12:26;;;;;;;6.72;4.85;;;;;;;10.91;52.66;95924.22;5054843;28;20519;-59
2023/04/06 06:14:53;;;;;;;8.73;5.40;;;;;;;10.63;54.13;95921.22;5055002;28;20495;-59
2023/04/06 06:17:21;;;;;;;6.70;5.15;;;;;;;10.46;54.88;95922.84;5054988;28;20106;-58
2023/04/06 06:19:49;;;;;;;6.93;5.50;;;;;;;9.85;54.83;95917.72;5054977;28;20103;-59
2023/04/06 06:22:16;;;;;;;6.22;5.38;;;;;;;9.58;56.43;95915.44;5054880;28;20445;-59
2023/04/06 06:24:43;;;;;;;6.55;5.53;;;;;;;9.33;56.63;95910.47;5054905;28;20048;-59
2023/04/06 06:27:10;;;;;;;7.13;5.55;;;;;;;9.11;57.74;95911.38;5055209;28;20079;-55
2023/04/06 06:29:37;;;;;;;6.10;5.50;;;;;;;8.82;59.68;95914.25;5055005;28;20049;-56
2023/04/06 06:32:05;;;;;;;6.47;5.88;;;;;;;8.45;61.46;95913.97;5054737;28;20553;-58
2023/04/06 06:34:33;;;;;;;6.28;5.68;;;;;;;8.24;61.97;95905.22;5054340;28;20041;-53
2023/04/06 06:37:01;;;;;;;8.23;6.30;;;;;;;8.24;63.15;95909.59;5054552;28;20457;-57
2023/04/06 06:39:29;;;;;;;7.25;6.55;;;;;;;8.14;64.42;95904.75;5054799;28;20075;-59
2023/04/06 06:41:56;;;;;;;9.77;6.53;;;;;;;8.07;65.62;95911.94;5054771;28;20056;-61
2023/04/06 06:44:23;;;;;;;7.40;6.53;;;;;;;7.86;66.25;95910.16;5054819;28;20057;-56
2023/04/06 06:46:50;;;;;;;7.72;6.63;;;;;;;7.50;66.96;95916.63;5054453;28;20498;-57
2023/04/06 06:49:18;;;;;;;7.72;7.00;;;;;;;7.39;69.37;95917.88;5054622;28;20398;-57
2023/04/06 06:51:47;;;;;;;8.20;6.80;;;;;;;7.30;69.42;95920.78;5054465;28;20486;-57
2023/04/06 06:54:14;;;;;;;13.45;7.18;;;;;;;7.07;70.31;95923.28;5054503;28;20079;-59
2023/04/06 06:56:41;;;;;;;8.23;7.40;;;;;;;6.90;70.87;95923.84;5054163;28;20479;-58
2023/04/06 06:59:08;;;;;;;8.23;6.80;;;;;;;6.70;69.91;95922.75;5054219;28;20419;-61
2023/04/06 07:01:35;;;;;;;13.57;8.45;;;;;;;6.64;71.45;95925.56;5054254;28;20044;-61
2023/04/06 07:04:03;;;;;;;8.60;7.70;;;;;;;6.49;71.17;95915.63;5054128;28;20053;-63
2023/04/06 07:06:30;;;;;;;9.18;8.05;;;;;;;6.25;72.99;95918.09;5054174;28;20041;-61
2023/04/06 07:08:58;;;;;;;13.05;9.13;;;;;;;6.06;73.95;95926.47;5054087;28;20114;-59
2023/04/06 07:11:26;;;;;;;16.23;9.55;;;;;;;6.05;75.09;95917.81;5053801;28;20057;-59
2023/04/06 07:13:53;;;;;;;13.52;10.00;;;;;;;5.96;75.02;95918.03;5053974;28;20045;-57
2023/04/06 07:16:21;;;;;;;15.13;10.10;;;;;;;6.13;75.38;95925.38;5054031;28;20095;-55
2023/04/06 07:18:48;;;;;;;14.48;10.00;;;;;;;6.14;74.28;95921.03;5053882;28;20087;-59
2023/04/06 07:21:15;;;;;;;12.13;10.05;;;;;;;6.35;74.70;95927.31;5053885;28;20191;-62
2023/04/06 07:23:43;;;;;;;13.30;10.52;;;;;;;6.52;74.13;95926.78;5053752;28;20494;-57
2023/04/06 07:26:15;;;;;;;14.95;10.13;;;;;;;6.54;73.12;95924.16;5053729;28;20494;-54
2023/04/06 07:28:43;;;;;;;14.30;10.32;;;;;;;6.50;71.49;95925.16;5053614;28;20057;-56
2023/04/06 07:31:10;;;;;;;15.85;9.75;;;;;;;6.47;72.16;95922.66;5053564;28;20055;-61
2023/04/06 07:33:37;;;;;;;12.60;10.20;;;;;;;6.52;72.47;95934.59;5053649;28;20041;-58
2023/04/06 07:36:05;;;;;;;12.32;9.77;;;;;;;6.49;71.73;95939.88;5053475;28;20513;-55
2023/04/06 07:38:32;;;;;;;12.82;9.55;;;;;;;6.42;69.64;95931.41;5053491;28;20050;-57
2023/04/06 07:41:00;;;;;;;18.45;10.18;;;;;;;6.40;71.02;95932.38;5053510;28;20044;-55
2023/04/06 07:43:28;;;;;;;10.93;9.68;;;;;;;6.90;71.09;95930.81;5053419;28;20454;-55
2023/04/06 07:45:57;;;;;;;11.65;10.40;;;;;;;7.46;70.90;95916.75;5052747;28;20052;-55
2023/04/06 07:48:24;;;;;;;11.15;9.70;;;;;;;8.10;67.30;95918.81;5053390;28;20053;-53
2023/04/06 07:50:51;;;;;;;13.75;10.68;;;;;;;8.96;73.40;95924.16;5053442;28;20051;-61
2023/04/06 07:53:18;;;;;;;12.02;9.45;;;;;;;9.57;67.97;95926.81;5053357;28;20049;-59
2023/04/06 07:55:45;;;;;;;10.30;7.82;;;;;;;9.79;61.53;95930.25;5053139;28;20045;-54
2023/04/06 07:58:12;;;;;;;14.15;7.22;;;;;;;9.88;57.00;95935.06;5053175;28;20053;-56
2023/04/06 08:00:41;;;;;;;9.65;8.13;;;;;;;10.24;58.69;95936.88;5053155;28;20045;-56
2023/04/06 08:03:08;;;;;;;8.38;7.40;;;;;;;10.94;57.70;95935.41;5053145;28;20080;-60
2023/04/06 08:05:35;;;;;;;9.05;7.78;;;;;;;11.27;57.45;95933.81;5053057;28;20613;-55
2023/04/06 08:08:02;;;;;;;8.32;7.10;;;;;;;11.22;56.30;95933.16;5053143;28;20050;-55
2023/04/06 08:10:30;;;;;;;8.52;6.85;;;;;;;10.54;55.74;95934.72;5052917;28;20045;-52
2023/04/06 08:12:57;;;;;;;8.25;7.03;;;;;;;10.38;55.37;95935.41;5052850;28;20384;-60
2023/04/06 08:15:26;;;;;;;8.90;7.88;;;;;;;10.36;55.16;95927.63;5053088;28;20411;-58
2023/04/06 08:17:56;;;;;;;9.20;8.18;;;;;;;10.23;55.60;95924.75;5052932;28;20469;-58
2023/04/06 08:20:24;;;;;;;9.55;6.95;;;;;;;9.85;55.08;95928.19;5052967;28;20479;-51
2023/04/06 08:22:51;;;;;;;7.35;6.55;;;;;;;9.58;56.08;95925.06;5052862;28;20045;-57
2023/04/06 08:25:18;;;;;;;7.13;6.43;;;;;;;9.47;56.80;95928.97;5052938;28;20517;-56
2023/04/06 08:27:45;;;;;;;7.65;6.43;;;;;;;9.38;56.46;95933.72;5052943;28;20049;-61
2023/04/06 08:30:14;;;;;;;10.23;6.93;;;;;;;9.23;57.13;95930.88;5052898;28;20049;-60
2023/04/06 08:32:42;;;;;;;7.60;6.53;;;;;;;9.03;56.12;95927.31;5052821;28;20053;-56
2023/04/06 08:35:11;;;;;;;7.10;6.10;;;;;;;8.89;56.07;95924.44;5052803;28;20091;-58
2023/04/06 08:37:38;;;;;;;7.57;6.72;;;;;;;8.83;56.22;95929.03;5052769;28;20053;-58
2023/04/06 08:40:06;;;;;;;11.00;6.30;;;;;;;8.89;56.04;95925.31;5052770;28;20049;-58
2023/04/06 08:42:34;;;;;;;8.52;5.20;;;;;;;8.77;53.54;95924.06;5052816;28;20048;-54
2023/04/06 08:45:01;;;;;;;6.65;5.35;;;;;;;8.85;53.48;95916.75;5052746;28;20053;-54
2023/04/06 08:47:29;;;;;;;6.75;4.70;;;;;;;9.17;54.97;95921.53;5052845;28;20045;-50
2023/04/06 08:49:57;;;;;;;9.05;5.60;;;;;;;9.66;52.53;95912.50;5052658;28;20057;-62
2023/04/06 08:52:27;;;;;;;5.65;5.10;;;;;;;9.75;51.27;95921.69;5052680;28;20053;-60
2023/04/06 08:54:55;;;;;;;9.77;5.40;;;;;;;9.59;51.48;95911.94;5052632;28;20049;-53
2023/04/06 08:57:23;;;;;;;6.15;5.55;;;;;;;9.07;55.14;95913.28;5055548;28;20525;-56
2023/04/06 08:59:51;;;;;;;7.15;6.35;;;;;;;8.66;54.93;95910.59;5056458;28;20395;-54
2023/04/06 09:02:20;;;;;;;7.32;5.28;;;;;;;8.69;54.19;95908.72;5056468;28;20045;-57
2023/04/06 09:04:48;;;;;;;7.75;5.13;;;;;;;8.69;56.70;95911.31;5056359;28;20049;-62
2023/04/06 09:07:16;;;;;;;7.95;5.82;;;;;;;8.67;55.42;95905.31;5056315;28;20053;-58
2023/04/06 09:09:48;;;;;;;6.10;5.40;;;;;;;8.63;57.51;95903.75;5056335;28;20495;-54
2023/04/06 09:12:24;;;;;;;8.10;6.47;;;;;;;8.57;57.34;95897.03;5055987;28;20045;-58
2023/04/06 09:14:51;;;;;;;9.52;5.57;;;;;;;8.74;56.79;95900.72;5056230;28;20088;-54
2023/04/06 09:17:22;;;;;;;7.60;6.03;;;;;;;8.62;57.14;95890.75;5056112;28;20438;-53
2023/04/06 09:19:50;;;;;;;7.53;6.55;;;;;;;8.80;58.06;95892.63;5056087;28;20114;-52
2023/04/06 09:22:17;;;;;;;9.60;6.95;;;;;;;9.19;58.99;95898.84;5056125;28;20090;-58
2023/04/06 09:24:47;;;;;;;7.03;6.32;;;;;;;9.67;57.24;95889.84;5056126;28;20049;-59
2023/04/06 09:27:15;;;;;;;9.48;4.85;;;;;;;9.68;54.70;95895.00;5055962;28;20549;-59
2023/04/06 09:29:42;;;;;;;6.82;5.38;;;;;;;9.68;55.18;95891.53;5055906;28;20503;-58
2023/04/06 09:32:11;;;;;;;5.78;5.18;;;;;;;9.76;52.92;95886.81;5055858;28;20568;-60
2023/04/06 09:34:39;;;;;;;5.55;4.93;;;;;;;9.77;54.34;95883.28;5055787;28;20049;-56
2023/04/06 09:37:16;;;;;;;5.45;4.95;;;;;;;9.76;53.60;95884.22;5055641;28;20045;-60
2023/04/06 09:39:45;;;;;;;5.93;5.25;;;;;;;9.67;54.84;95877.66;5055822;28;20045;-58
2023/04/06 09:42:25;;;;;;;5.55;4.70;;;;;;;9.65;53.44;95883.84;5055651;28;20090;-53
2023/04/06 09:44:52;;;;;;;6.07;5.10;;;;;;;9.63;54.56;95880.47;5055673;28;20059;-59
2023/04/06 09:47:22;;;;;;;5.93;4.55;;;;;;;9.61;54.01;95883.97;5055625;28;20087;-60
2023/04/06 09:49:56;;;;;;;5.53;4.57;;;;;;;9.68;55.68;95886.31;5055643;28;20045;-58
2023/04/06 09:52:27;;;;;;;4.60;4.15;;;;;;;9.68;52.64;95886.31;5055496;28;20045;-54
2023/04/06 09:54:59;;;;;;;5.38;4.88;;;;;;;9.45;52.59;95882.97;5055508;28;20049;-57
2023/04/06 09:57:30;;;;;;;4.70;4.20;;;;;;;9.47;51.00;95881.13;5055330;28;20049;-58
2023/04/06 10:00:07;;;;;;;4.22;3.75;;;;;;;9.38;52.47;95882.38;5055216;28;20053;-60
2023/04/06 10:02:45;;;;;;;4.60;4.10;;;;;;;9.40;54.60;95883.19;5055293;28;20041;-58
2023/04/06 10:05:20;;;;;;;3.80;3.45;;;;;;;9.49;53.46;95887.13;5055335;28;20518;-59
2023/04/06 10:07:52;;;;;;;6.38;5.15;;;;;;;9.57;53.26;95884.19;5054600;28;20087;-57
2023/04/06 10:10:21;;;;;;;6.95;6.25;;;;;;;9.59;52.98;95879.72;5055112;28;20059;-61
2023/04/06 10:12:49;;;;;;;7.00;5.95;;;;;;;9.50;54.46;95886.22;5054911;28;20049;-57
2023/04/06 10:15:16;;;;;;;8.15;7.15;;;;;;;9.64;55.42;95877.78;5055090;28;20045;-52
2023/04/06 10:17:45;;;;;;;5.43;4.82;;;;;;;9.68;54.81;95871.50;5055239;28;20049;-58
2023/04/06 10:20:20;;;;;;;6.20;4.95;;;;;;;9.73;56.97;95872.13;5054998;28;20487;-59
2023/04/06 10:22:56;;;;;;;7.55;4.63;;;;;;;9.82;52.06;95875.25;5055041;28;20045;-57
2023/04/06 10:25:32;;;;;;;4.75;4.32;;;;;;;9.78;51.42;95874.53;5055045;28;20530;-56
2023/04/06 10:28:03;;;;;;;4.20;3.80;;;;;;;9.82;49.26;95878.69;5054885;28;20459;-56
2023/04/06 10:30:30;;;;;;;4.25;3.90;;;;;;;9.80;51.75;95875.31;5054794;28;20049;-58
2023/04/06 10:32:58;;;;;;;4.15;3.72;;;;;;;9.93;50.93;95872.16;5054696;28;20077;-52
2023/04/06 10:35:25;;;;;;;6.22;4.60;;;;;;;10.10;51.19;95868.75;5054790;28;20053;-57
2023/04/06 10:37:54;;;;;;;4.97;4.47;;;;;;;10.24;50.19;95874.16;5054660;28;20053;-61
2023/04/06 10:40:24;;;;;;;5.95;4.50;;;;;;;10.41;50.16;95869.91;5054683;28;20041;-58
2023/04/06 10:42:53;;;;;;;8.13;4.20;;;;;;;10.47;50.44;95871.38;5054738;28;20081;-58
2023/04/06 10:45:21;;;;;;;4.43;4.03;;;;;;;10.37;48.98;95870.97;5054537;28;20053;-59
2023/04/06 10:47:49;;;;;;;4.25;3.85;;;;;;;10.46;47.77;95869.72;5054515;28;20045;-57
2023/04/06 10:50:17;;;;;;;7.97;6.95;;;;;;;10.30;50.10;95875.63;5054437;28;20055;-54
2023/04/06 10:52:46;;;;;;;4.45;4.05;;;;;;;10.36;50.88;95861.44;5054449;28;20072;-62
2023/04/06 10:55:14;;;;;;;5.05;4.55;;;;;;;10.66;51.32;95860.91;5054429;28;20128;-54
2023/04/06 10:57:42;;;;;;;4.25;3.85;;;;;;;11.15;48.98;95855.88;5054309;28;20053;-57
2023/04/06 11:00:13;;;;;;;3.90;3.40;;;;;;;11.52;47.01;95851.34;5054279;28;20102;-56
2023/04/06 11:02:40;;;;;;;4.35;3.95;;;;;;;11.24;47.52;95853.66;5054262;28;20111;-54
2023/04/06 11:05:08;;;;;;;4.40;4.00;;;;;;;10.99;48.70;95856.69;5054040;28;20567;-56
2023/04/06 11:07:36;;;;;;;4.63;4.00;;;;;;;10.91;46.79;95850.97;5054070;28;20053;-57
2023/04/06 11:10:03;;;;;;;5.28;3.65;;;;;;;10.78;47.96;95851.59;5054058;28;20048;-61
2023/04/06 11:12:31;;;;;;;4.50;4.10;;;;;;;10.68;48.90;95839.88;5053732;28;20106;-58
2023/04/06 11:15:04;;;;;;;4.93;3.97;;;;;;;10.61;49.94;95842.81;5053892;28;20048;-58
2023/04/06 11:17:33;;;;;;;5.47;4.97;;;;;;;10.58;49.09;95842.97;5053838;28;20045;-57
2023/04/06 11:20:01;;;;;;;3.70;3.40;;;;;;;10.52;46.34;95847.63;5052928;28;20128;-58
2023/04/06 11:22:28;;;;;;;4.25;3.75;;;;;;;10.62;47.36;95835.81;5053874;28;20041;-55
2023/04/06 11:25:06;;;;;;;3.95;3.58;;;;;;;10.74;47.38;95840.44;5053851;28;20124;-58
2023/04/06 11:27:34;;;;;;;7.25;4.90;;;;;;;10.80;48.32;95841.88;5053675;28;20057;-55
2023/04/06 11:30:02;;;;;;;5.82;4.88;;;;;;;10.79;48.46;95844.59;5053660;28;20048;-55
2023/04/06 11:32:30;;;;;;;6.82;6.00;;;;;;;10.79;50.25;95840.22;5053679;28;20533;-53
2023/04/06 11:34:59;;;;;;;11.02;5.07;;;;;;;10.59;49.99;95836.81;5053556;28;20045;-58
2023/04/06 11:37:28;;;;;;;10.35;9.05;;;;;;;10.44;50.57;95833.16;5053476;28;20044;-54
2023/04/06 11:39:57;;;;;;;14.43;11.27;;;;;;;10.52;49.73;95831.94;5053513;28;20473;-55
2023/04/06 11:42:26;;;;;;;6.82;4.88;;;;;;;10.45;51.05;95836.63;5053619;28;20044;-59